Pebble Beach, CA

12:19 AM PST on January 30, 2015 (GMT -0800)
Spyglass | Change Station
CLOSE
Current Station
Personal Weather Station
Location: Del Monte Forest, CA
Elevation: 207 ft
Nearby Weather Stations

Elev 207 ft 36.59 °N, 121.95 °W | Updated 2 seconds ago

Clear
Clear
51.6 °F
Feels Like 51.6 °F
N
1.0
Wind Variable Wind from North
Gusts 1.0 mph

Today
High -- | Low -- °F
--% Chance of Precip.
Yesterday
High -- | Low -- °F
Precip. -- in
7:11 AM 5:31 PM
Waxing Gibbous, 81% visible
Pressure 30.10 in
Visibility 10.0 miles
Clouds Clear
Dew Point 50 °F
Humidity 95%
Rainfall 0.00 in
Snow Depth Not available.
UV 0 out of 12
Pollen 5.20 out of 12
Air Quality Not available.
Flu Activity Not available.
METAR KMRY 300754Z 08003KT 10SM CLR 09/07 A3006 RMK AO2 SLP193 T00890072 401890061

More Conditions Fewer Conditions

Pressure 30.10 in
Visibility 10.0 miles
Clouds Clear
Dew Point 50 °F
Humidity 95%
Rainfall 0.00 in
Snow Depth Not available.
UV 0 out of 12
Pollen 5.20 out of 12
Air Quality Not available.
Flu Activity Not available.
METAR KMRY 300754Z 08003KT 10SM CLR 09/07 A3006 RMK AO2 SLP193 T00890072 401890061

More Conditions Fewer Conditions

10-Day Weather Forecast

Almanac

Astronomy

Jan. 30, 2015 Rise Set
Actual Time
Civil Twilight
Nautical Twilight
Astronomical Twilight
Moon
Length of Visible Light
Length of Day
Tomorrow will be .
, % of the Moon is Illuminated

Today's Extremes

State Highs State Lows

Community

WunderPhotos

Upload Photos

1,791,726 photos uploaded!

WunderBlogs® & News

Nearby

Air Quality

  Air Quality AQ Index Pollutant
Not available.

Snow Depth

Station Depth Elevation

Earthquake Activity

City Distance Mag. Time & Date
Minimum magnitude displayed is 2.5.

Coastal Water Temperatures

Place Temperature

Nearby Weather Stations